createdAt,value
2022-09-12T00:01:12.894Z,11.00
2022-09-12T00:03:40.281Z,11.77
2022-09-12T00:06:22.617Z,11.50
2022-09-12T00:08:50.320Z,11.77
2022-09-12T00:11:16.938Z,13.48
2022-09-12T00:13:43.916Z,13.52
2022-09-12T00:16:21.905Z,12.10
2022-09-12T00:18:49.171Z,13.50
2022-09-12T00:21:17.493Z,12.82
2022-09-12T00:23:44.758Z,13.07
2022-09-12T00:26:11.499Z,12.82
2022-09-12T00:28:39.569Z,13.63
2022-09-12T00:31:09.533Z,12.23
2022-09-12T00:33:36.687Z,12.75
2022-09-12T00:36:16.337Z,13.85
2022-09-12T00:38:44.458Z,13.55
2022-09-12T00:41:17.720Z,13.27
2022-09-12T00:43:47.758Z,13.18
2022-09-12T00:46:19.207Z,13.82
2022-09-12T00:48:52.508Z,12.95
2022-09-12T00:51:19.934Z,13.25
2022-09-12T00:53:50.038Z,13.60
2022-09-12T00:56:18.745Z,13.30
2022-09-12T00:59:04.024Z,14.23
2022-09-12T01:01:32.755Z,12.50
2022-09-12T01:04:00.213Z,12.65
2022-09-12T01:06:35.243Z,13.52
2022-09-12T01:09:04.442Z,14.43
2022-09-12T01:11:39.060Z,13.07
2022-09-12T01:14:07.279Z,14.75
2022-09-12T01:16:37.861Z,15.02
2022-09-12T01:19:33.113Z,14.10
2022-09-12T01:22:18.518Z,14.10
2022-09-12T01:25:10.092Z,15.60
2022-09-12T01:27:53.449Z,15.65
2022-09-12T01:30:45.453Z,14.93
2022-09-12T01:33:17.769Z,15.57
2022-09-12T01:36:02.963Z,15.20
2022-09-12T01:38:46.919Z,15.80
2022-09-12T01:41:16.679Z,17.75
2022-09-12T01:43:48.061Z,17.38
2022-09-12T01:46:19.321Z,17.52
2022-09-12T01:48:59.138Z,16.20
2022-09-12T01:51:29.758Z,17.48
2022-09-12T01:54:10.282Z,17.63
2022-09-12T01:56:40.736Z,17.63
2022-09-12T01:59:37.098Z,16.88
2022-09-12T02:02:06.270Z,16.42
2022-09-12T02:04:52.952Z,16.30
2022-09-12T02:07:41.848Z,16.80
2022-09-12T02:10:08.635Z,17.50
2022-09-12T02:12:58.033Z,18.15
2022-09-12T02:15:30.085Z,16.13
2022-09-12T02:18:01.038Z,17.38
2022-09-12T02:20:54.638Z,18.83
2022-09-12T02:23:25.435Z,18.75
2022-09-12T02:25:57.747Z,18.70
2022-09-12T02:28:31.914Z,17.65
2022-09-12T02:31:10.435Z,20.05
2022-09-12T02:33:53.243Z,17.25
2022-09-12T02:36:40.010Z,17.85
2022-09-12T02:39:06.819Z,16.80
2022-09-12T02:41:33.641Z,16.73
2022-09-12T02:44:00.501Z,17.20
2022-09-12T02:46:40.777Z,15.18
2022-09-12T02:49:09.425Z,16.50
2022-09-12T02:51:37.049Z,16.10
2022-09-12T02:54:06.425Z,15.98
2022-09-12T02:56:33.440Z,16.23
2022-09-12T02:59:06.760Z,16.13
2022-09-12T03:01:33.406Z,15.77
2022-09-12T03:04:21.782Z,16.60
2022-09-12T03:07:13.008Z,15.70
2022-09-12T03:10:14.980Z,15.75
2022-09-12T03:13:03.297Z,16.25
2022-09-12T03:15:41.927Z,16.13
2022-09-12T03:18:38.399Z,15.52
2022-09-12T03:21:19.326Z,16.48
2022-09-12T03:24:13.699Z,17.20
2022-09-12T03:26:43.239Z,16.15
2022-09-12T03:29:11.583Z,15.63
2022-09-12T03:31:47.615Z,16.63
2022-09-12T03:34:14.330Z,16.42
2022-09-12T03:36:41.697Z,16.08
2022-09-12T03:39:08.306Z,15.77
2022-09-12T03:41:34.929Z,16.45
2022-09-12T03:44:01.795Z,16.10
2022-09-12T03:46:28.433Z,16.65
2022-09-12T03:48:55.068Z,16.58
2022-09-12T03:51:22.118Z,16.58
2022-09-12T03:53:48.781Z,19.17
2022-09-12T03:56:15.436Z,18.52
2022-09-12T03:58:42.538Z,18.63
2022-09-12T04:01:12.748Z,18.65
2022-09-12T04:03:43.841Z,18.30
2022-09-12T04:06:12.049Z,19.80
2022-09-12T04:08:38.961Z,19.92
2022-09-12T04:11:10.580Z,20.48
2022-09-12T04:13:38.555Z,18.60
2022-09-12T04:16:05.970Z,17.60
2022-09-12T04:18:33.060Z,19.35
2022-09-12T04:21:07.596Z,19.90
2022-09-12T04:23:34.813Z,21.02
2022-09-12T04:26:03.141Z,20.90
2022-09-12T04:28:30.447Z,22.10
2022-09-12T04:31:02.846Z,19.52
2022-09-12T04:33:29.581Z,21.35
2022-09-12T04:35:56.284Z,21.20
2022-09-12T04:38:22.907Z,20.50
2022-09-12T04:40:49.533Z,20.73
2022-09-12T04:43:16.582Z,19.10
2022-09-12T04:45:43.247Z,21.40
2022-09-12T04:48:09.925Z,23.17
2022-09-12T04:50:36.610Z,23.30
2022-09-12T04:53:03.336Z,22.75
2022-09-12T04:55:30.083Z,23.63
2022-09-12T04:57:56.712Z,21.40
2022-09-12T05:00:23.388Z,21.48
2022-09-12T05:02:50.141Z,22.45
2022-09-12T05:05:17.346Z,22.85
2022-09-12T05:07:44.048Z,24.27
2022-09-12T05:10:10.777Z,22.85
2022-09-12T05:12:37.430Z,22.42
2022-09-12T05:15:04.712Z,22.40
2022-09-12T05:17:31.341Z,22.25
2022-09-12T05:19:57.978Z,23.55
2022-09-12T05:22:25.134Z,22.25
2022-09-12T05:24:51.779Z,23.05
2022-09-12T05:27:18.455Z,24.17
2022-09-12T05:29:45.193Z,23.98
2022-09-12T05:32:12.515Z,24.38
2022-09-12T05:34:40.141Z,24.30
2022-09-12T05:37:06.965Z,23.50
2022-09-12T05:39:33.738Z,22.52
2022-09-12T05:42:00.392Z,22.92
2022-09-12T05:44:27.109Z,23.23
2022-09-12T05:46:53.786Z,24.42
2022-09-12T05:49:21.492Z,23.67
2022-09-12T05:51:48.133Z,22.42
2022-09-12T05:54:18.740Z,22.50
2022-09-12T05:56:45.692Z,22.70
2022-09-12T05:59:15.244Z,25.45
2022-09-12T06:01:42.405Z,25.50
2022-09-12T06:04:09.560Z,25.52
2022-09-12T06:06:47.007Z,24.63
2022-09-12T06:09:16.117Z,26.58
2022-09-12T06:11:42.987Z,24.77
2022-09-12T06:14:12.766Z,25.73
2022-09-12T06:16:39.872Z,25.58
2022-09-12T06:19:12.545Z,26.48
2022-09-12T06:21:39.817Z,25.05
2022-09-12T06:24:07.517Z,27.90
2022-09-12T06:26:34.851Z,25.88
2022-09-12T06:29:02.290Z,26.55
2022-09-12T06:31:31.569Z,25.85
2022-09-12T06:34:01.196Z,26.08
2022-09-12T06:36:30.967Z,26.65
2022-09-12T06:39:03.639Z,28.02
2022-09-12T06:41:31.622Z,26.48
2022-09-12T06:43:59.093Z,26.73
2022-09-12T06:46:26.605Z,27.92
2022-09-12T06:48:55.457Z,27.60
2022-09-12T06:51:22.211Z,28.23
2022-09-12T06:53:49.550Z,29.73
2022-09-12T06:56:21.644Z,28.02
2022-09-12T06:58:50.432Z,26.05
2022-09-12T07:01:21.683Z,28.88
2022-09-12T07:03:53.893Z,28.77
2022-09-12T07:06:24.157Z,27.73
2022-09-12T07:08:50.955Z,27.85
2022-09-12T07:11:24.035Z,30.08
2022-09-12T07:13:52.717Z,30.33
2022-09-12T07:16:20.311Z,29.45
2022-09-12T07:18:58.195Z,29.42
2022-09-12T07:21:25.205Z,29.77
2022-09-12T07:23:52.049Z,28.73
2022-09-12T07:26:18.983Z,28.30
2022-09-12T07:28:45.696Z,28.20
2022-09-12T07:31:18.313Z,28.13
2022-09-12T07:33:45.265Z,28.63
2022-09-12T07:36:14.561Z,28.92
2022-09-12T07:38:42.382Z,26.98
2022-09-12T07:41:19.149Z,28.95
2022-09-12T07:43:46.044Z,29.45
2022-09-12T07:46:14.228Z,26.38
2022-09-12T07:48:41.237Z,27.88
2022-09-12T07:51:10.789Z,27.08
2022-09-12T07:53:39.954Z,27.30
2022-09-12T07:56:08.463Z,27.60
2022-09-12T07:58:36.577Z,28.05
2022-09-12T08:01:15.811Z,26.73
2022-09-12T08:03:45.002Z,27.90
2022-09-12T08:06:17.367Z,26.35
2022-09-12T08:08:44.016Z,28.52
2022-09-12T08:11:13.607Z,25.30
2022-09-12T08:13:41.850Z,26.10
2022-09-12T08:16:17.953Z,25.67
2022-09-12T08:18:44.946Z,27.15
2022-09-12T08:21:20.019Z,25.15
2022-09-12T08:23:47.244Z,23.52
2022-09-12T08:26:14.067Z,25.35
2022-09-12T08:28:45.620Z,25.58
2022-09-12T08:31:15.232Z,25.25
2022-09-12T08:33:42.171Z,25.67
2022-09-12T08:36:22.557Z,24.25
2022-09-12T08:41:47.731Z,23.58
2022-09-12T08:44:25.946Z,25.40
2022-09-12T08:47:10.302Z,23.48
2022-09-12T08:49:54.470Z,23.90
2022-09-12T08:52:30.871Z,22.52
2022-09-12T08:54:57.712Z,22.95
2022-09-12T08:57:24.803Z,23.30
2022-09-12T08:59:52.925Z,22.38
2022-09-12T09:02:41.430Z,23.50
2022-09-12T09:05:15.040Z,22.08
2022-09-12T09:08:10.650Z,20.70
2022-09-12T09:10:52.894Z,23.15
2022-09-12T09:13:53.442Z,21.75
2022-09-12T09:16:30.622Z,22.80
2022-09-12T09:19:05.506Z,21.75
2022-09-12T09:21:34.851Z,22.02
2022-09-12T09:24:06.472Z,21.30
2022-09-12T09:27:00.700Z,21.08
2022-09-12T09:29:34.634Z,21.70
2022-09-12T09:32:09.480Z,20.95
2022-09-12T09:34:36.184Z,19.10
2022-09-12T09:37:36.162Z,19.58
2022-09-12T09:40:15.622Z,20.85
2022-09-12T09:43:00.540Z,18.98
2022-09-12T09:45:30.116Z,21.10
2022-09-12T09:48:09.946Z,19.50
2022-09-12T09:50:37.820Z,19.67
2022-09-12T09:53:07.334Z,20.35
2022-09-12T09:55:42.984Z,19.00
2022-09-12T09:58:09.684Z,19.33
2022-09-12T10:00:38.151Z,18.30
2022-09-12T10:03:37.093Z,19.67
2022-09-12T10:06:23.639Z,17.63
2022-09-12T10:08:50.857Z,18.13
2022-09-12T10:11:23.244Z,17.73
2022-09-12T10:13:59.931Z,15.90
2022-09-12T10:16:28.156Z,16.65
2022-09-12T10:19:00.607Z,13.88
2022-09-12T10:21:30.392Z,16.30
2022-09-12T10:24:13.479Z,13.90
2022-09-12T10:26:41.794Z,11.50
2022-09-12T10:29:18.890Z,11.25
2022-09-12T10:31:51.253Z,9.95
2022-09-12T10:34:25.972Z,10.55
2022-09-12T10:36:58.839Z,10.57
2022-09-12T10:39:26.132Z,9.63
2022-09-12T10:41:52.792Z,9.38
2022-09-12T10:44:27.315Z,9.98
2022-09-12T10:46:54.603Z,9.07
2022-09-12T10:49:37.904Z,9.60
2022-09-12T10:52:25.047Z,9.27
2022-09-12T10:54:51.916Z,9.80
2022-09-12T10:57:43.925Z,8.65
2022-09-12T11:00:20.459Z,9.93
2022-09-12T11:03:15.245Z,7.50
2022-09-12T11:05:57.794Z,6.72
2022-09-12T11:08:34.080Z,6.30
2022-09-12T11:11:04.070Z,6.65
2022-09-12T11:13:45.746Z,7.05
2022-09-12T11:16:27.290Z,7.32
2022-09-12T11:19:04.035Z,6.82
2022-09-12T11:21:38.426Z,7.35
2022-09-12T11:24:23.161Z,6.43
2022-09-12T11:27:08.277Z,7.97
2022-09-12T11:29:47.273Z,8.00
2022-09-12T11:32:32.180Z,7.38
2022-09-12T11:35:31.548Z,8.30
2022-09-12T11:38:05.075Z,7.30
2022-09-12T11:40:40.668Z,7.38
2022-09-12T11:43:26.227Z,8.35
2022-09-12T11:45:53.657Z,6.72
2022-09-12T11:48:40.021Z,6.68
2022-09-12T11:51:18.222Z,7.00
2022-09-12T11:53:50.549Z,6.95
2022-09-12T11:56:18.635Z,6.35
2022-09-12T11:58:54.580Z,7.10
2022-09-12T12:01:28.610Z,6.00
2022-09-12T12:03:57.023Z,6.00
2022-09-12T12:06:39.986Z,6.25
2022-09-12T12:09:06.676Z,7.43
2022-09-12T12:11:41.872Z,6.85
2022-09-12T12:14:35.753Z,6.00
2022-09-12T12:17:02.587Z,5.05
2022-09-12T12:19:37.627Z,5.22
2022-09-12T12:22:24.732Z,5.10
2022-09-12T12:25:07.464Z,5.05
2022-09-12T12:27:51.332Z,5.88
2022-09-12T12:30:30.402Z,5.40
2022-09-12T12:33:27.253Z,4.90
2022-09-12T12:35:59.835Z,4.22
2022-09-12T12:38:30.805Z,4.38
2022-09-12T12:41:19.321Z,4.32
2022-09-12T12:43:54.710Z,4.50
2022-09-12T12:46:31.151Z,4.32
2022-09-12T12:49:17.345Z,3.83
2022-09-12T12:51:58.880Z,4.15
2022-09-12T12:54:42.194Z,4.05
2022-09-12T12:57:39.379Z,4.22
2022-09-12T13:00:25.981Z,3.67
2022-09-12T13:03:06.551Z,3.60
2022-09-12T13:05:46.033Z,3.90
2022-09-12T13:08:18.785Z,4.32
2022-09-12T13:11:07.428Z,4.57
2022-09-12T13:13:49.743Z,3.70
2022-09-12T13:16:37.843Z,3.90
2022-09-12T13:19:20.273Z,3.90
2022-09-12T13:22:16.097Z,3.90
2022-09-12T13:24:44.786Z,3.95
2022-09-12T13:27:18.977Z,3.67
2022-09-12T13:29:45.857Z,4.22
2022-09-12T13:32:12.788Z,3.90
2022-09-12T13:35:00.131Z,4.10
2022-09-12T13:37:26.705Z,3.85
2022-09-12T13:40:08.308Z,3.70
2022-09-12T13:42:53.229Z,4.63
2022-09-12T13:45:21.789Z,3.67
2022-09-12T13:47:57.883Z,4.00
2022-09-12T13:50:39.476Z,3.40
2022-09-12T13:53:12.108Z,3.60
2022-09-12T13:55:46.163Z,3.50
2022-09-12T13:58:22.914Z,3.78
2022-09-12T14:01:22.522Z,3.70
2022-09-12T14:04:13.247Z,4.03
2022-09-12T14:06:49.662Z,3.40
2022-09-12T14:09:25.233Z,3.40
2022-09-12T14:11:52.761Z,3.75
2022-09-12T14:14:34.190Z,3.28
2022-09-12T14:17:01.078Z,2.90
2022-09-12T14:19:29.122Z,3.42
2022-09-12T14:21:57.215Z,3.70
2022-09-12T14:24:24.420Z,2.97
2022-09-12T14:26:54.158Z,3.60
2022-09-12T14:32:01.641Z,3.40
2022-09-12T14:34:28.435Z,3.90
2022-09-12T14:36:57.176Z,3.15
2022-09-12T14:39:31.666Z,3.30
2022-09-12T14:42:14.319Z,3.22
2022-09-12T14:44:50.149Z,2.67
2022-09-12T14:47:24.887Z,3.45
2022-09-12T14:49:52.247Z,3.05
2022-09-12T14:52:26.161Z,2.90
2022-09-12T14:55:18.656Z,3.00
2022-09-12T14:57:47.865Z,2.88
2022-09-12T15:00:20.914Z,2.90
2022-09-12T15:02:49.182Z,2.83
2022-09-12T15:05:20.739Z,2.67
2022-09-12T15:07:56.798Z,2.50
2022-09-12T15:10:33.977Z,3.00
2022-09-12T15:13:11.838Z,2.90
2022-09-12T15:15:40.188Z,2.95
2022-09-12T15:18:07.190Z,3.00
2022-09-12T15:20:38.936Z,2.70
2022-09-12T15:23:12.126Z,3.30
2022-09-12T15:25:38.817Z,2.70
2022-09-12T15:28:20.938Z,2.90
2022-09-12T15:30:50.501Z,3.05
2022-09-12T15:33:19.572Z,2.83
2022-09-12T15:35:46.444Z,2.70
2022-09-12T15:38:13.174Z,2.40
2022-09-12T15:40:40.174Z,2.72
2022-09-12T15:43:07.068Z,2.70
2022-09-12T15:45:35.361Z,2.58
2022-09-12T15:48:03.326Z,2.50
2022-09-12T15:50:30.504Z,2.33
2022-09-12T15:52:57.601Z,2.38
2022-09-12T15:55:30.197Z,2.30
2022-09-12T15:57:56.794Z,2.85
2022-09-12T16:00:23.795Z,2.45
2022-09-12T16:02:52.955Z,2.58
2022-09-12T16:05:23.250Z,2.30
2022-09-12T16:07:53.324Z,2.50
2022-09-12T16:10:23.978Z,2.47
2022-09-12T16:12:51.366Z,2.50
2022-09-12T16:15:20.826Z,2.80
2022-09-12T16:17:47.944Z,2.60
2022-09-12T16:20:14.888Z,2.80
2022-09-12T16:22:42.409Z,2.80
2022-09-12T16:25:09.548Z,2.50
2022-09-12T16:27:37.481Z,2.78
2022-09-12T16:30:06.163Z,2.60
2022-09-12T16:32:33.417Z,2.50
2022-09-12T16:35:00.401Z,2.80
2022-09-12T16:37:27.360Z,3.03
2022-09-12T16:39:54.082Z,3.17
2022-09-12T16:42:20.811Z,2.83
2022-09-12T16:44:47.670Z,2.90
2022-09-12T16:47:15.098Z,2.72
2022-09-12T16:49:41.746Z,2.83
2022-09-12T16:52:08.657Z,3.03
2022-09-12T16:54:35.398Z,3.10
2022-09-12T16:57:05.062Z,3.70
2022-09-12T16:59:32.100Z,2.58
2022-09-12T17:01:58.858Z,2.85
2022-09-12T17:04:25.637Z,3.20
2022-09-12T17:06:52.331Z,2.85
2022-09-12T17:09:19.116Z,2.72
2022-09-12T17:11:50.276Z,3.08
2022-09-12T17:14:17.169Z,2.42
2022-09-12T17:16:50.737Z,2.53
2022-09-12T17:19:22.076Z,2.83
2022-09-12T17:21:49.967Z,2.72
2022-09-12T17:24:17.729Z,2.80
2022-09-12T17:26:45.049Z,2.92
2022-09-12T17:29:15.787Z,2.75
2022-09-12T17:31:44.054Z,2.50
2022-09-12T17:34:14.313Z,2.75
2022-09-12T17:36:44.187Z,3.05
2022-09-12T17:39:11.902Z,2.65
2022-09-12T17:41:38.838Z,2.85
2022-09-12T17:44:07.555Z,2.90
2022-09-12T17:46:38.386Z,3.10
2022-09-12T17:49:08.090Z,2.88
2022-09-12T17:51:35.221Z,2.40
2022-09-12T17:54:04.616Z,2.90
2022-09-12T17:56:33.006Z,2.80
2022-09-12T17:59:00.317Z,2.60
2022-09-12T18:01:46.354Z,2.85
2022-09-12T18:04:13.637Z,3.10
2022-09-12T18:06:40.920Z,2.92
2022-09-12T18:09:09.535Z,3.03
2022-09-12T18:11:36.499Z,2.83
2022-09-12T18:14:03.121Z,2.85
2022-09-12T18:16:31.364Z,3.10
2022-09-12T18:19:01.480Z,3.17
2022-09-12T18:23:58.872Z,3.00
2022-09-12T18:26:27.146Z,2.95
2022-09-12T18:28:54.229Z,3.30
2022-09-12T18:31:24.432Z,3.17
2022-09-12T18:33:51.601Z,3.38
2022-09-12T18:36:19.367Z,3.08
2022-09-12T18:38:46.128Z,2.90
2022-09-12T18:41:14.876Z,3.10
2022-09-12T18:43:42.147Z,3.25
2022-09-12T18:46:15.969Z,2.80
2022-09-12T18:48:43.189Z,3.15
2022-09-12T18:51:15.024Z,3.67
2022-09-12T18:53:42.742Z,3.75
2022-09-12T18:56:12.054Z,3.38
2022-09-12T18:58:40.674Z,3.23
2022-09-12T19:01:15.998Z,3.40
2022-09-12T19:03:43.508Z,3.40
2022-09-12T19:06:21.708Z,3.22
2022-09-12T19:08:50.165Z,3.58
2022-09-12T19:11:17.847Z,3.40
2022-09-12T19:13:46.119Z,3.40
2022-09-12T19:16:16.712Z,3.40
2022-09-12T19:18:43.672Z,3.30
2022-09-12T19:21:22.429Z,3.80
2022-09-12T19:23:50.046Z,3.63
2022-09-12T19:26:18.138Z,3.72
2022-09-12T19:28:45.300Z,3.65
2022-09-12T19:31:15.125Z,3.78
2022-09-12T19:33:42.831Z,3.70
2022-09-12T19:36:33.697Z,3.80
2022-09-12T19:39:00.112Z,3.70
2022-09-12T19:41:26.848Z,4.20
2022-09-12T19:43:55.685Z,4.30
2022-09-12T19:46:24.165Z,4.50
2022-09-12T19:48:52.371Z,4.22
2022-09-12T19:51:20.835Z,3.97
2022-09-12T19:53:47.796Z,4.25
2022-09-12T19:56:14.936Z,4.30
2022-09-12T19:58:46.635Z,4.13
2022-09-12T20:01:17.520Z,4.07
2022-09-12T20:03:44.840Z,4.20
2022-09-12T20:06:13.906Z,4.20
2022-09-12T20:08:44.620Z,3.90
2022-09-12T20:11:14.013Z,4.40
2022-09-12T20:13:41.374Z,4.60
2022-09-12T20:16:29.213Z,4.45
2022-09-12T20:19:01.735Z,4.60
2022-09-12T20:21:34.164Z,4.40
2022-09-12T20:24:07.253Z,4.90
2022-09-12T20:26:34.132Z,4.55
2022-09-12T20:29:01.341Z,4.55
2022-09-12T20:31:28.565Z,4.30
2022-09-12T20:33:55.553Z,4.55
2022-09-12T20:36:22.933Z,4.35
2022-09-12T20:38:59.878Z,4.75
2022-09-12T20:41:28.526Z,4.38
2022-09-12T20:43:56.881Z,4.15
2022-09-12T20:46:24.928Z,5.47
2022-09-12T20:48:52.259Z,4.90
2022-09-12T20:51:24.548Z,5.38
2022-09-12T20:53:58.093Z,6.20
2022-09-12T20:56:26.580Z,5.72
2022-09-12T20:58:54.201Z,5.82
2022-09-12T21:01:21.713Z,6.13
2022-09-12T21:03:48.758Z,6.22
2022-09-12T21:06:19.289Z,6.03
2022-09-12T21:08:47.489Z,6.63
2022-09-12T21:11:16.895Z,6.90
2022-09-12T21:13:43.913Z,7.43
2022-09-12T21:16:16.816Z,7.20
2022-09-12T21:18:43.973Z,7.28
2022-09-12T21:21:15.044Z,6.65
2022-09-12T21:23:42.301Z,7.07
2022-09-12T21:26:09.026Z,6.70
2022-09-12T21:28:35.746Z,7.05
2022-09-12T21:31:02.525Z,6.50
2022-09-12T21:33:29.283Z,6.63
2022-09-12T21:36:00.594Z,6.32
2022-09-12T21:38:27.218Z,6.53
2022-09-12T21:41:06.455Z,6.45
2022-09-12T21:43:33.305Z,6.50
2022-09-12T21:46:00.999Z,6.38
2022-09-12T21:48:28.285Z,6.32
2022-09-12T21:50:55.041Z,6.10
2022-09-12T21:53:21.733Z,6.32
2022-09-12T21:55:48.600Z,6.07
2022-09-12T21:58:15.276Z,5.80
2022-09-12T22:00:42.368Z,5.70
2022-09-12T22:03:10.362Z,5.53
2022-09-12T22:05:40.054Z,5.25
2022-09-12T22:08:07.898Z,4.97
2022-09-12T22:10:34.793Z,4.68
2022-09-12T22:13:01.669Z,4.72
2022-09-12T22:15:43.842Z,4.50
2022-09-12T22:18:11.412Z,4.40
2022-09-12T22:20:38.037Z,4.57
2022-09-12T22:23:24.950Z,4.28
2022-09-12T22:25:55.086Z,4.38
2022-09-12T22:28:22.505Z,4.60
2022-09-12T22:30:49.248Z,4.32
2022-09-12T22:33:15.941Z,4.10
2022-09-12T22:35:42.580Z,4.65
2022-09-12T22:38:09.353Z,3.92
2022-09-12T22:40:35.997Z,4.32
2022-09-12T22:43:02.751Z,3.88
2022-09-12T22:45:29.378Z,4.30
2022-09-12T22:48:00.411Z,4.40
2022-09-12T22:50:27.584Z,4.20
2022-09-12T22:52:54.219Z,4.57
2022-09-12T22:55:20.856Z,4.20
2022-09-12T22:57:47.650Z,4.05
2022-09-12T23:00:14.993Z,4.30
2022-09-12T23:02:41.656Z,3.95
2022-09-12T23:05:08.613Z,4.28
2022-09-12T23:07:35.614Z,4.20
2022-09-12T23:10:02.246Z,4.25
2022-09-12T23:12:28.970Z,4.07
2022-09-12T23:14:55.574Z,4.30
2022-09-12T23:17:22.217Z,3.97
2022-09-12T23:19:48.900Z,3.90
2022-09-12T23:22:15.495Z,4.07
2022-09-12T23:24:42.130Z,3.85
2022-09-12T23:27:08.926Z,4.07
2022-09-12T23:29:35.629Z,3.83
2022-09-12T23:32:05.756Z,3.72
2022-09-12T23:34:33.531Z,4.20
2022-09-12T23:37:00.161Z,4.28
2022-09-12T23:39:26.899Z,3.92
2022-09-12T23:41:53.593Z,4.30
2022-09-12T23:44:20.219Z,3.90
2022-09-12T23:46:46.815Z,4.35
2022-09-12T23:49:13.541Z,4.10
2022-09-12T23:51:40.140Z,3.90
2022-09-12T23:54:06.924Z,4.13
2022-09-12T23:56:33.676Z,4.30
2022-09-12T23:59:00.361Z,4.20
